sensor_id;sensor_type;location;lat;lon;timestamp;P1;durP1;ratioP1;P2;durP2;ratioP2
7971;SDS011;4031;49.758;6.120;2022-09-17T00:01:01;5.53;;;4.13;;
7971;SDS011;4031;49.758;6.120;2022-09-17T00:03:28;3.73;;;3.20;;
7971;SDS011;4031;49.758;6.120;2022-09-17T00:05:58;7.77;;;4.30;;
7971;SDS011;4031;49.758;6.120;2022-09-17T00:08:25;5.33;;;3.87;;
7971;SDS011;4031;49.758;6.120;2022-09-17T00:10:51;5.83;;;3.70;;
7971;SDS011;4031;49.758;6.120;2022-09-17T00:13:17;4.23;;;3.50;;
7971;SDS011;4031;49.758;6.120;2022-09-17T00:15:43;7.47;;;4.00;;
7971;SDS011;4031;49.758;6.120;2022-09-17T00:18:11;12.60;;;4.90;;
7971;SDS011;4031;49.758;6.120;2022-09-17T00:20:39;11.47;;;4.07;;
7971;SDS011;4031;49.758;6.120;2022-09-17T00:23:07;9.87;;;4.57;;
7971;SDS011;4031;49.758;6.120;2022-09-17T00:25:36;9.20;;;4.50;;
7971;SDS011;4031;49.758;6.120;2022-09-17T00:28:03;5.20;;;4.00;;
7971;SDS011;4031;49.758;6.120;2022-09-17T00:30:29;7.80;;;4.03;;
7971;SDS011;4031;49.758;6.120;2022-09-17T00:32:55;8.07;;;4.33;;
7971;SDS011;4031;49.758;6.120;2022-09-17T00:35:22;8.13;;;3.80;;
7971;SDS011;4031;49.758;6.120;2022-09-17T00:37:49;7.60;;;4.40;;
7971;SDS011;4031;49.758;6.120;2022-09-17T00:40:15;7.70;;;4.40;;
7971;SDS011;4031;49.758;6.120;2022-09-17T00:42:42;8.37;;;5.20;;
7971;SDS011;4031;49.758;6.120;2022-09-17T00:45:09;8.57;;;4.00;;
7971;SDS011;4031;49.758;6.120;2022-09-17T00:47:44;5.03;;;3.63;;
7971;SDS011;4031;49.758;6.120;2022-09-17T00:50:20;6.60;;;3.93;;
7971;SDS011;4031;49.758;6.120;2022-09-17T00:52:57;5.20;;;3.63;;
7971;SDS011;4031;49.758;6.120;2022-09-17T00:55:47;6.13;;;4.50;;
7971;SDS011;4031;49.758;6.120;2022-09-17T00:58:29;5.80;;;3.77;;
7971;SDS011;4031;49.758;6.120;2022-09-17T01:00:58;7.03;;;4.20;;
7971;SDS011;4031;49.758;6.120;2022-09-17T01:03:24;10.33;;;4.30;;
7971;SDS011;4031;49.758;6.120;2022-09-17T01:09:10;5.00;;;3.60;;
7971;SDS011;4031;49.758;6.120;2022-09-17T01:14:33;7.90;;;5.07;;
7971;SDS011;4031;49.758;6.120;2022-09-17T01:30:04;6.10;;;4.00;;
7971;SDS011;4031;49.758;6.120;2022-09-17T01:32:38;5.90;;;3.10;;
7971;SDS011;4031;49.758;6.120;2022-09-17T01:38:21;5.80;;;3.07;;
7971;SDS011;4031;49.758;6.120;2022-09-17T01:41:28;8.87;;;3.40;;
7971;SDS011;4031;49.758;6.120;2022-09-17T01:47:34;7.13;;;3.93;;
7971;SDS011;4031;49.758;6.120;2022-09-17T01:50:11;4.20;;;3.03;;
7971;SDS011;4031;49.758;6.120;2022-09-17T01:52:43;8.07;;;3.90;;
7971;SDS011;4031;49.758;6.120;2022-09-17T01:55:13;4.63;;;2.70;;
7971;SDS011;4031;49.758;6.120;2022-09-17T01:57:43;4.30;;;2.60;;
7971;SDS011;4031;49.758;6.120;2022-09-17T02:00:20;6.13;;;3.10;;
7971;SDS011;4031;49.758;6.120;2022-09-17T02:02:47;6.20;;;3.30;;
7971;SDS011;4031;49.758;6.120;2022-09-17T02:05:26;5.70;;;2.47;;
7971;SDS011;4031;49.758;6.120;2022-09-17T02:08:22;4.47;;;3.00;;
7971;SDS011;4031;49.758;6.120;2022-09-17T02:10:58;3.03;;;2.50;;
7971;SDS011;4031;49.758;6.120;2022-09-17T02:16:23;4.50;;;2.80;;
7971;SDS011;4031;49.758;6.120;2022-09-17T02:27:12;6.80;;;3.50;;
7971;SDS011;4031;49.758;6.120;2022-09-17T02:30:02;5.50;;;3.60;;
7971;SDS011;4031;49.758;6.120;2022-09-17T02:32:28;5.63;;;3.10;;
7971;SDS011;4031;49.758;6.120;2022-09-17T02:34:54;6.30;;;4.47;;
7971;SDS011;4031;49.758;6.120;2022-09-17T02:37:20;5.27;;;3.03;;
7971;SDS011;4031;49.758;6.120;2022-09-17T02:39:46;5.93;;;3.53;;
7971;SDS011;4031;49.758;6.120;2022-09-17T02:45:11;5.60;;;3.43;;
7971;SDS011;4031;49.758;6.120;2022-09-17T02:53:57;5.47;;;3.27;;
7971;SDS011;4031;49.758;6.120;2022-09-17T02:56:51;3.00;;;2.67;;
7971;SDS011;4031;49.758;6.120;2022-09-17T02:59:34;7.37;;;2.90;;
7971;SDS011;4031;49.758;6.120;2022-09-17T03:04:42;5.00;;;2.97;;
7971;SDS011;4031;49.758;6.120;2022-09-17T03:07:11;4.90;;;2.67;;
7971;SDS011;4031;49.758;6.120;2022-09-17T03:09:38;5.90;;;3.03;;
7971;SDS011;4031;49.758;6.120;2022-09-17T03:12:04;7.00;;;3.40;;
7971;SDS011;4031;49.758;6.120;2022-09-17T03:14:30;6.10;;;3.40;;
7971;SDS011;4031;49.758;6.120;2022-09-17T03:16:56;5.53;;;3.27;;
7971;SDS011;4031;49.758;6.120;2022-09-17T03:19:22;6.57;;;3.50;;
7971;SDS011;4031;49.758;6.120;2022-09-17T03:21:48;6.73;;;2.87;;
7971;SDS011;4031;49.758;6.120;2022-09-17T03:24:14;3.77;;;2.80;;
7971;SDS011;4031;49.758;6.120;2022-09-17T03:26:39;9.33;;;2.87;;
7971;SDS011;4031;49.758;6.120;2022-09-17T03:29:05;6.73;;;2.50;;
7971;SDS011;4031;49.758;6.120;2022-09-17T03:31:31;5.30;;;2.93;;
7971;SDS011;4031;49.758;6.120;2022-09-17T03:33:57;7.97;;;3.20;;
7971;SDS011;4031;49.758;6.120;2022-09-17T03:36:23;3.67;;;2.80;;
7971;SDS011;4031;49.758;6.120;2022-09-17T03:38:52;3.90;;;3.00;;
7971;SDS011;4031;49.758;6.120;2022-09-17T03:41:22;3.20;;;2.73;;
7971;SDS011;4031;49.758;6.120;2022-09-17T03:43:48;6.00;;;2.50;;
7971;SDS011;4031;49.758;6.120;2022-09-17T03:46:14;2.30;;;2.10;;
7971;SDS011;4031;49.758;6.120;2022-09-17T03:48:40;5.83;;;2.60;;
7971;SDS011;4031;49.758;6.120;2022-09-17T03:51:06;3.90;;;2.87;;
7971;SDS011;4031;49.758;6.120;2022-09-17T03:53:32;5.30;;;2.70;;
7971;SDS011;4031;49.758;6.120;2022-09-17T03:55:58;8.93;;;3.03;;
7971;SDS011;4031;49.758;6.120;2022-09-17T03:58:26;3.97;;;2.77;;
7971;SDS011;4031;49.758;6.120;2022-09-17T04:00:53;5.33;;;3.60;;
7971;SDS011;4031;49.758;6.120;2022-09-17T04:03:21;4.70;;;3.40;;
7971;SDS011;4031;49.758;6.120;2022-09-17T04:05:48;6.83;;;3.90;;
7971;SDS011;4031;49.758;6.120;2022-09-17T04:08:14;4.27;;;3.23;;
7971;SDS011;4031;49.758;6.120;2022-09-17T04:10:40;6.13;;;3.40;;
7971;SDS011;4031;49.758;6.120;2022-09-17T04:13:06;7.77;;;4.20;;
7971;SDS011;4031;49.758;6.120;2022-09-17T04:15:33;5.77;;;3.70;;
7971;SDS011;4031;49.758;6.120;2022-09-17T04:17:59;5.90;;;3.70;;
7971;SDS011;4031;49.758;6.120;2022-09-17T04:20:24;4.77;;;3.37;;
7971;SDS011;4031;49.758;6.120;2022-09-17T04:22:51;9.30;;;4.23;;
7971;SDS011;4031;49.758;6.120;2022-09-17T04:25:17;5.03;;;3.70;;
7971;SDS011;4031;49.758;6.120;2022-09-17T04:27:43;4.67;;;3.80;;
7971;SDS011;4031;49.758;6.120;2022-09-17T04:30:10;8.80;;;3.73;;
7971;SDS011;4031;49.758;6.120;2022-09-17T04:32:36;8.30;;;3.50;;
7971;SDS011;4031;49.758;6.120;2022-09-17T04:35:03;8.17;;;3.20;;
7971;SDS011;4031;49.758;6.120;2022-09-17T04:37:29;5.20;;;3.23;;
7971;SDS011;4031;49.758;6.120;2022-09-17T04:39:54;4.90;;;2.50;;
7971;SDS011;4031;49.758;6.120;2022-09-17T04:42:20;3.20;;;2.90;;
7971;SDS011;4031;49.758;6.120;2022-09-17T04:44:46;2.90;;;2.70;;
7971;SDS011;4031;49.758;6.120;2022-09-17T04:47:12;5.73;;;3.13;;
7971;SDS011;4031;49.758;6.120;2022-09-17T04:49:38;4.37;;;2.60;;
7971;SDS011;4031;49.758;6.120;2022-09-17T04:52:04;2.53;;;2.33;;
7971;SDS011;4031;49.758;6.120;2022-09-17T04:54:29;6.27;;;3.03;;
7971;SDS011;4031;49.758;6.120;2022-09-17T04:56:55;5.20;;;2.63;;
7971;SDS011;4031;49.758;6.120;2022-09-17T04:59:21;2.70;;;2.10;;
7971;SDS011;4031;49.758;6.120;2022-09-17T05:01:47;3.77;;;2.20;;
7971;SDS011;4031;49.758;6.120;2022-09-17T05:04:13;4.07;;;2.33;;
7971;SDS011;4031;49.758;6.120;2022-09-17T05:06:39;4.00;;;2.63;;
7971;SDS011;4031;49.758;6.120;2022-09-17T05:09:05;5.23;;;2.10;;
7971;SDS011;4031;49.758;6.120;2022-09-17T05:11:30;4.47;;;2.30;;
7971;SDS011;4031;49.758;6.120;2022-09-17T05:13:56;5.80;;;2.40;;
7971;SDS011;4031;49.758;6.120;2022-09-17T05:16:22;3.00;;;2.03;;
7971;SDS011;4031;49.758;6.120;2022-09-17T05:18:48;2.70;;;2.23;;
7971;SDS011;4031;49.758;6.120;2022-09-17T05:21:15;2.40;;;2.20;;
7971;SDS011;4031;49.758;6.120;2022-09-17T05:23:42;2.90;;;2.20;;
7971;SDS011;4031;49.758;6.120;2022-09-17T05:26:08;5.00;;;2.40;;
7971;SDS011;4031;49.758;6.120;2022-09-17T05:28:34;3.10;;;2.20;;
7971;SDS011;4031;49.758;6.120;2022-09-17T05:31:00;4.87;;;2.30;;
7971;SDS011;4031;49.758;6.120;2022-09-17T05:33:26;3.43;;;2.37;;
7971;SDS011;4031;49.758;6.120;2022-09-17T05:35:52;3.07;;;2.50;;
7971;SDS011;4031;49.758;6.120;2022-09-17T05:38:18;3.70;;;2.20;;
7971;SDS011;4031;49.758;6.120;2022-09-17T05:40:44;6.60;;;2.63;;
7971;SDS011;4031;49.758;6.120;2022-09-17T05:43:10;2.53;;;2.33;;
7971;SDS011;4031;49.758;6.120;2022-09-17T05:45:36;2.40;;;2.20;;
7971;SDS011;4031;49.758;6.120;2022-09-17T05:48:03;3.10;;;2.70;;
7971;SDS011;4031;49.758;6.120;2022-09-17T05:50:31;6.40;;;2.63;;
7971;SDS011;4031;49.758;6.120;2022-09-17T05:53:04;4.10;;;2.70;;
7971;SDS011;4031;49.758;6.120;2022-09-17T05:55:36;5.87;;;2.63;;
7971;SDS011;4031;49.758;6.120;2022-09-17T06:00:36;3.50;;;2.50;;
7971;SDS011;4031;49.758;6.120;2022-09-17T06:03:04;4.60;;;2.67;;
7971;SDS011;4031;49.758;6.120;2022-09-17T06:05:29;2.53;;;2.33;;
7971;SDS011;4031;49.758;6.120;2022-09-17T06:07:55;5.57;;;2.73;;
7971;SDS011;4031;49.758;6.120;2022-09-17T06:10:21;4.20;;;2.63;;
7971;SDS011;4031;49.758;6.120;2022-09-17T06:12:47;2.10;;;1.90;;
7971;SDS011;4031;49.758;6.120;2022-09-17T06:15:13;3.10;;;2.53;;
7971;SDS011;4031;49.758;6.120;2022-09-17T06:17:39;3.07;;;2.50;;
7971;SDS011;4031;49.758;6.120;2022-09-17T06:20:05;5.23;;;2.17;;
7971;SDS011;4031;49.758;6.120;2022-09-17T06:22:31;2.63;;;2.10;;
7971;SDS011;4031;49.758;6.120;2022-09-17T06:24:57;2.70;;;1.77;;
7971;SDS011;4031;49.758;6.120;2022-09-17T06:27:29;2.40;;;1.70;;
7971;SDS011;4031;49.758;6.120;2022-09-17T06:29:58;3.77;;;2.00;;
7971;SDS011;4031;49.758;6.120;2022-09-17T06:32:25;1.67;;;1.57;;
7971;SDS011;4031;49.758;6.120;2022-09-17T06:34:51;2.50;;;1.83;;
7971;SDS011;4031;49.758;6.120;2022-09-17T06:37:18;3.27;;;1.57;;
7971;SDS011;4031;49.758;6.120;2022-09-17T06:39:43;4.33;;;1.80;;
7971;SDS011;4031;49.758;6.120;2022-09-17T06:42:09;2.40;;;1.57;;
7971;SDS011;4031;49.758;6.120;2022-09-17T06:44:36;2.53;;;2.00;;
7971;SDS011;4031;49.758;6.120;2022-09-17T06:47:02;1.63;;;1.40;;
7971;SDS011;4031;49.758;6.120;2022-09-17T06:49:28;2.20;;;1.67;;
7971;SDS011;4031;49.758;6.120;2022-09-17T06:51:55;1.40;;;1.30;;
7971;SDS011;4031;49.758;6.120;2022-09-17T06:54:21;2.40;;;1.10;;
7971;SDS011;4031;49.758;6.120;2022-09-17T06:56:46;2.47;;;1.50;;
7971;SDS011;4031;49.758;6.120;2022-09-17T06:59:12;1.03;;;0.93;;
7971;SDS011;4031;49.758;6.120;2022-09-17T07:01:38;1.63;;;1.10;;
7971;SDS011;4031;49.758;6.120;2022-09-17T07:04:04;1.57;;;1.10;;
7971;SDS011;4031;49.758;6.120;2022-09-17T07:06:30;2.30;;;0.87;;
7971;SDS011;4031;49.758;6.120;2022-09-17T07:08:56;10.67;;;1.40;;
7971;SDS011;4031;49.758;6.120;2022-09-17T07:11:22;1.00;;;0.90;;
7971;SDS011;4031;49.758;6.120;2022-09-17T07:13:48;3.40;;;1.27;;
7971;SDS011;4031;49.758;6.120;2022-09-17T07:16:14;1.87;;;1.27;;
7971;SDS011;4031;49.758;6.120;2022-09-17T07:18:40;1.50;;;0.80;;
7971;SDS011;4031;49.758;6.120;2022-09-17T07:21:06;2.23;;;2.03;;
7971;SDS011;4031;49.758;6.120;2022-09-17T07:23:34;2.57;;;0.87;;
7971;SDS011;4031;49.758;6.120;2022-09-17T07:26:02;2.50;;;1.17;;
7971;SDS011;4031;49.758;6.120;2022-09-17T07:28:37;1.40;;;1.13;;
7971;SDS011;4031;49.758;6.120;2022-09-17T07:31:04;3.20;;;1.23;;
7971;SDS011;4031;49.758;6.120;2022-09-17T07:33:31;2.23;;;1.30;;
7971;SDS011;4031;49.758;6.120;2022-09-17T07:36:00;2.30;;;1.60;;
7971;SDS011;4031;49.758;6.120;2022-09-17T07:38:29;3.20;;;1.27;;
7971;SDS011;4031;49.758;6.120;2022-09-17T07:40:59;2.50;;;1.40;;
7971;SDS011;4031;49.758;6.120;2022-09-17T07:43:26;1.73;;;1.33;;
7971;SDS011;4031;49.758;6.120;2022-09-17T07:45:55;2.27;;;1.53;;
7971;SDS011;4031;49.758;6.120;2022-09-17T07:48:22;2.23;;;1.83;;
7971;SDS011;4031;49.758;6.120;2022-09-17T07:50:49;2.80;;;1.40;;
7971;SDS011;4031;49.758;6.120;2022-09-17T07:53:15;3.33;;;1.63;;
7971;SDS011;4031;49.758;6.120;2022-09-17T07:55:41;8.27;;;1.87;;
7971;SDS011;4031;49.758;6.120;2022-09-17T07:58:07;2.70;;;1.70;;
7971;SDS011;4031;49.758;6.120;2022-09-17T08:00:33;3.40;;;1.57;;
7971;SDS011;4031;49.758;6.120;2022-09-17T08:02:59;8.40;;;2.07;;
7971;SDS011;4031;49.758;6.120;2022-09-17T08:05:25;3.30;;;2.30;;
7971;SDS011;4031;49.758;6.120;2022-09-17T08:07:52;5.30;;;2.20;;
7971;SDS011;4031;49.758;6.120;2022-09-17T08:10:19;3.10;;;1.70;;
7971;SDS011;4031;49.758;6.120;2022-09-17T08:12:51;4.63;;;1.67;;
7971;SDS011;4031;49.758;6.120;2022-09-17T08:15:20;2.33;;;2.07;;
7971;SDS011;4031;49.758;6.120;2022-09-17T08:17:47;4.93;;;3.10;;
7971;SDS011;4031;49.758;6.120;2022-09-17T08:20:13;5.57;;;1.57;;
7971;SDS011;4031;49.758;6.120;2022-09-17T08:22:40;4.60;;;1.90;;
7971;SDS011;4031;49.758;6.120;2022-09-17T08:25:07;4.20;;;1.73;;
7971;SDS011;4031;49.758;6.120;2022-09-17T08:27:34;2.00;;;1.43;;
7971;SDS011;4031;49.758;6.120;2022-09-17T08:30:02;3.53;;;1.30;;
7971;SDS011;4031;49.758;6.120;2022-09-17T08:32:30;3.67;;;1.07;;
7971;SDS011;4031;49.758;6.120;2022-09-17T08:34:56;5.10;;;1.87;;
7971;SDS011;4031;49.758;6.120;2022-09-17T08:37:22;4.00;;;1.67;;
7971;SDS011;4031;49.758;6.120;2022-09-17T08:39:48;5.70;;;1.63;;
7971;SDS011;4031;49.758;6.120;2022-09-17T08:42:22;5.70;;;1.60;;
7971;SDS011;4031;49.758;6.120;2022-09-17T08:45:03;4.87;;;2.93;;
7971;SDS011;4031;49.758;6.120;2022-09-17T08:47:35;4.40;;;2.37;;
7971;SDS011;4031;49.758;6.120;2022-09-17T08:50:10;7.73;;;1.57;;
7971;SDS011;4031;49.758;6.120;2022-09-17T08:55:50;4.20;;;1.87;;
7971;SDS011;4031;49.758;6.120;2022-09-17T09:06:41;5.33;;;1.70;;
7971;SDS011;4031;49.758;6.120;2022-09-17T09:09:46;3.77;;;1.47;;
7971;SDS011;4031;49.758;6.120;2022-09-17T09:12:29;3.27;;;1.80;;
7971;SDS011;4031;49.758;6.120;2022-09-17T09:17:33;3.63;;;1.63;;
7971;SDS011;4031;49.758;6.120;2022-09-17T09:20:18;2.80;;;1.47;;
7971;SDS011;4031;49.758;6.120;2022-09-17T09:22:56;6.23;;;2.30;;
7971;SDS011;4031;49.758;6.120;2022-09-17T09:25:32;3.63;;;1.30;;
7971;SDS011;4031;49.758;6.120;2022-09-17T09:28:18;2.10;;;1.00;;
7971;SDS011;4031;49.758;6.120;2022-09-17T09:31:43;3.67;;;1.43;;
7971;SDS011;4031;49.758;6.120;2022-09-17T09:34:13;1.77;;;1.10;;
7971;SDS011;4031;49.758;6.120;2022-09-17T09:36:40;1.67;;;1.57;;
7971;SDS011;4031;49.758;6.120;2022-09-17T09:41:51;3.60;;;1.50;;
7971;SDS011;4031;49.758;6.120;2022-09-17T09:44:24;2.50;;;1.57;;
7971;SDS011;4031;49.758;6.120;2022-09-17T09:53:21;2.80;;;1.27;;
7971;SDS011;4031;49.758;6.120;2022-09-17T09:58:38;4.60;;;1.40;;
7971;SDS011;4031;49.758;6.120;2022-09-17T10:01:24;4.03;;;1.93;;
7971;SDS011;4031;49.758;6.120;2022-09-17T10:03:52;3.50;;;1.60;;
7971;SDS011;4031;49.758;6.120;2022-09-17T10:06:22;2.53;;;1.17;;
7971;SDS011;4031;49.758;6.120;2022-09-17T10:11:22;2.07;;;1.00;;
7971;SDS011;4031;49.758;6.120;2022-09-17T10:13:50;4.97;;;1.47;;
7971;SDS011;4031;49.758;6.120;2022-09-17T10:16:17;2.27;;;1.20;;
7971;SDS011;4031;49.758;6.120;2022-09-17T10:18:48;5.73;;;2.10;;
7971;SDS011;4031;49.758;6.120;2022-09-17T10:21:34;2.30;;;1.40;;
7971;SDS011;4031;49.758;6.120;2022-09-17T10:24:14;5.53;;;1.50;;
7971;SDS011;4031;49.758;6.120;2022-09-17T10:26:59;3.10;;;1.53;;
7971;SDS011;4031;49.758;6.120;2022-09-17T10:29:28;1.93;;;1.40;;
7971;SDS011;4031;49.758;6.120;2022-09-17T10:31:55;4.60;;;1.27;;
7971;SDS011;4031;49.758;6.120;2022-09-17T10:34:32;4.00;;;1.27;;
7971;SDS011;4031;49.758;6.120;2022-09-17T10:36:58;2.17;;;1.00;;
7971;SDS011;4031;49.758;6.120;2022-09-17T10:39:37;3.40;;;1.13;;
7971;SDS011;4031;49.758;6.120;2022-09-17T10:42:13;5.20;;;1.00;;
7971;SDS011;4031;49.758;6.120;2022-09-17T10:45:22;1.37;;;0.80;;
7971;SDS011;4031;49.758;6.120;2022-09-17T10:47:54;2.37;;;0.80;;
7971;SDS011;4031;49.758;6.120;2022-09-17T10:50:31;1.70;;;0.70;;
7971;SDS011;4031;49.758;6.120;2022-09-17T10:53:01;1.47;;;0.80;;
7971;SDS011;4031;49.758;6.120;2022-09-17T11:01:49;1.83;;;0.90;;
7971;SDS011;4031;49.758;6.120;2022-09-17T11:10:29;1.27;;;0.60;;
7971;SDS011;4031;49.758;6.120;2022-09-17T11:13:19;1.97;;;0.77;;
7971;SDS011;4031;49.758;6.120;2022-09-17T11:35:39;1.53;;;0.70;;
7971;SDS011;4031;49.758;6.120;2022-09-17T11:41:26;2.27;;;0.60;;
7971;SDS011;4031;49.758;6.120;2022-09-17T11:47:03;1.47;;;0.80;;
7971;SDS011;4031;49.758;6.120;2022-09-17T11:52:12;0.97;;;0.60;;
7971;SDS011;4031;49.758;6.120;2022-09-17T11:57:28;0.80;;;0.43;;
7971;SDS011;4031;49.758;6.120;2022-09-17T12:00:02;3.77;;;0.60;;
7971;SDS011;4031;49.758;6.120;2022-09-17T12:03:27;2.30;;;0.70;;
7971;SDS011;4031;49.758;6.120;2022-09-17T12:06:07;3.00;;;1.00;;
7971;SDS011;4031;49.758;6.120;2022-09-17T12:11:49;1.17;;;0.60;;
7971;SDS011;4031;49.758;6.120;2022-09-17T12:14:38;1.30;;;0.73;;
7971;SDS011;4031;49.758;6.120;2022-09-17T12:17:24;1.80;;;0.47;;
7971;SDS011;4031;49.758;6.120;2022-09-17T12:20:02;0.80;;;0.60;;
7971;SDS011;4031;49.758;6.120;2022-09-17T12:22:46;1.53;;;0.90;;
7971;SDS011;4031;49.758;6.120;2022-09-17T12:25:13;1.53;;;0.87;;
7971;SDS011;4031;49.758;6.120;2022-09-17T12:31:23;1.30;;;0.67;;
7971;SDS011;4031;49.758;6.120;2022-09-17T12:40:28;1.30;;;1.00;;
7971;SDS011;4031;49.758;6.120;2022-09-17T12:51:57;2.30;;;1.17;;
7971;SDS011;4031;49.758;6.120;2022-09-17T13:00:34;2.63;;;1.50;;
7971;SDS011;4031;49.758;6.120;2022-09-17T13:05:59;0.70;;;0.60;;
7971;SDS011;4031;49.758;6.120;2022-09-17T13:17:09;1.27;;;0.50;;
7971;SDS011;4031;49.758;6.120;2022-09-17T13:19:56;1.40;;;0.60;;
7971;SDS011;4031;49.758;6.120;2022-09-17T13:22:28;1.03;;;0.60;;
7971;SDS011;4031;49.758;6.120;2022-09-17T13:25:08;6.10;;;3.70;;
7971;SDS011;4031;49.758;6.120;2022-09-17T13:27:37;0.50;;;0.50;;
7971;SDS011;4031;49.758;6.120;2022-09-17T13:30:07;1.33;;;0.70;;
7971;SDS011;4031;49.758;6.120;2022-09-17T13:37:42;1.53;;;0.50;;
7971;SDS011;4031;49.758;6.120;2022-09-17T13:40:28;0.90;;;0.60;;
7971;SDS011;4031;49.758;6.120;2022-09-17T13:45:32;1.07;;;0.67;;
7971;SDS011;4031;49.758;6.120;2022-09-17T13:48:19;1.43;;;0.83;;
7971;SDS011;4031;49.758;6.120;2022-09-17T13:50:48;0.63;;;0.50;;
7971;SDS011;4031;49.758;6.120;2022-09-17T13:55:49;0.70;;;0.50;;
7971;SDS011;4031;49.758;6.120;2022-09-17T13:58:23;0.90;;;0.53;;
7971;SDS011;4031;49.758;6.120;2022-09-17T14:06:41;0.80;;;0.60;;
7971;SDS011;4031;49.758;6.120;2022-09-17T14:13:47;1.77;;;0.60;;
7971;SDS011;4031;49.758;6.120;2022-09-17T14:17:06;0.70;;;0.50;;
7971;SDS011;4031;49.758;6.120;2022-09-17T14:21:40;1.17;;;0.40;;
7971;SDS011;4031;49.758;6.120;2022-09-17T14:24:30;1.10;;;0.50;;
7971;SDS011;4031;49.758;6.120;2022-09-17T14:35:30;1.23;;;0.50;;
7971;SDS011;4031;49.758;6.120;2022-09-17T14:38:15;0.80;;;0.50;;
7971;SDS011;4031;49.758;6.120;2022-09-17T14:40:57;2.13;;;0.70;;
7971;SDS011;4031;49.758;6.120;2022-09-17T14:43:32;1.53;;;0.70;;
7971;SDS011;4031;49.758;6.120;2022-09-17T14:46:19;1.90;;;0.90;;
7971;SDS011;4031;49.758;6.120;2022-09-17T14:48:49;1.97;;;1.10;;
7971;SDS011;4031;49.758;6.120;2022-09-17T14:54:05;1.50;;;0.97;;
7971;SDS011;4031;49.758;6.120;2022-09-17T14:56:58;1.10;;;0.53;;
7971;SDS011;4031;49.758;6.120;2022-09-17T15:02:20;1.47;;;0.93;;
7971;SDS011;4031;49.758;6.120;2022-09-17T15:10:44;1.37;;;0.53;;
7971;SDS011;4031;49.758;6.120;2022-09-17T15:13:24;1.60;;;1.10;;
7971;SDS011;4031;49.758;6.120;2022-09-17T15:18:22;3.83;;;0.50;;
7971;SDS011;4031;49.758;6.120;2022-09-17T15:20:58;0.80;;;0.50;;
7971;SDS011;4031;49.758;6.120;2022-09-17T15:23:25;1.37;;;0.90;;
7971;SDS011;4031;49.758;6.120;2022-09-17T15:25:54;1.20;;;0.57;;
7971;SDS011;4031;49.758;6.120;2022-09-17T15:31:04;1.70;;;0.90;;
7971;SDS011;4031;49.758;6.120;2022-09-17T15:33:38;1.27;;;0.97;;
7971;SDS011;4031;49.758;6.120;2022-09-17T15:36:18;5.37;;;1.07;;
7971;SDS011;4031;49.758;6.120;2022-09-17T15:38:45;1.50;;;0.97;;
7971;SDS011;4031;49.758;6.120;2022-09-17T15:43:48;1.93;;;0.50;;
7971;SDS011;4031;49.758;6.120;2022-09-17T15:46:28;2.70;;;0.73;;
7971;SDS011;4031;49.758;6.120;2022-09-17T15:49:02;1.63;;;0.73;;
7971;SDS011;4031;49.758;6.120;2022-09-17T15:51:48;1.77;;;0.87;;
7971;SDS011;4031;49.758;6.120;2022-09-17T15:54:27;3.97;;;1.10;;
7971;SDS011;4031;49.758;6.120;2022-09-17T15:56:55;1.77;;;1.10;;
7971;SDS011;4031;49.758;6.120;2022-09-17T16:01:56;1.30;;;0.87;;
7971;SDS011;4031;49.758;6.120;2022-09-17T16:04:26;1.27;;;0.63;;
7971;SDS011;4031;49.758;6.120;2022-09-17T16:09:41;4.07;;;1.10;;
7971;SDS011;4031;49.758;6.120;2022-09-17T16:12:09;5.97;;;1.20;;
7971;SDS011;4031;49.758;6.120;2022-09-17T16:14:41;1.23;;;0.90;;
7971;SDS011;4031;49.758;6.120;2022-09-17T16:20:16;1.53;;;0.60;;
7971;SDS011;4031;49.758;6.120;2022-09-17T16:22:47;0.50;;;0.40;;
7971;SDS011;4031;49.758;6.120;2022-09-17T16:25:15;1.43;;;1.00;;
7971;SDS011;4031;49.758;6.120;2022-09-17T16:27:47;1.30;;;0.63;;
7971;SDS011;4031;49.758;6.120;2022-09-17T16:30:18;1.07;;;0.70;;
7971;SDS011;4031;49.758;6.120;2022-09-17T16:32:46;3.73;;;1.00;;
7971;SDS011;4031;49.758;6.120;2022-09-17T16:35:16;1.37;;;0.90;;
7971;SDS011;4031;49.758;6.120;2022-09-17T16:37:51;7.30;;;4.60;;
7971;SDS011;4031;49.758;6.120;2022-09-17T16:40:20;1.97;;;1.43;;
7971;SDS011;4031;49.758;6.120;2022-09-17T16:42:47;3.17;;;1.27;;
7971;SDS011;4031;49.758;6.120;2022-09-17T16:45:13;7.63;;;1.70;;
7971;SDS011;4031;49.758;6.120;2022-09-17T16:47:39;1.40;;;1.10;;
7971;SDS011;4031;49.758;6.120;2022-09-17T16:50:07;3.20;;;1.70;;
7971;SDS011;4031;49.758;6.120;2022-09-17T16:52:35;2.00;;;1.70;;
7971;SDS011;4031;49.758;6.120;2022-09-17T16:55:01;5.93;;;1.23;;
7971;SDS011;4031;49.758;6.120;2022-09-17T16:57:29;2.07;;;0.90;;
7971;SDS011;4031;49.758;6.120;2022-09-17T16:59:56;2.30;;;0.90;;
7971;SDS011;4031;49.758;6.120;2022-09-17T17:02:22;5.77;;;1.27;;
7971;SDS011;4031;49.758;6.120;2022-09-17T17:04:48;4.30;;;1.33;;
7971;SDS011;4031;49.758;6.120;2022-09-17T17:07:13;2.20;;;1.20;;
7971;SDS011;4031;49.758;6.120;2022-09-17T17:09:39;3.70;;;1.80;;
7971;SDS011;4031;49.758;6.120;2022-09-17T17:12:05;6.30;;;1.97;;
7971;SDS011;4031;49.758;6.120;2022-09-17T17:14:32;2.17;;;0.90;;
7971;SDS011;4031;49.758;6.120;2022-09-17T17:16:58;1.47;;;1.17;;
7971;SDS011;4031;49.758;6.120;2022-09-17T17:19:24;3.87;;;1.30;;
7971;SDS011;4031;49.758;6.120;2022-09-17T17:21:51;1.47;;;0.90;;
7971;SDS011;4031;49.758;6.120;2022-09-17T17:24:17;1.63;;;0.70;;
7971;SDS011;4031;49.758;6.120;2022-09-17T17:26:43;2.33;;;1.00;;
7971;SDS011;4031;49.758;6.120;2022-09-17T17:29:09;2.13;;;1.03;;
7971;SDS011;4031;49.758;6.120;2022-09-17T17:31:34;0.90;;;0.80;;
7971;SDS011;4031;49.758;6.120;2022-09-17T17:34:01;2.27;;;1.47;;
7971;SDS011;4031;49.758;6.120;2022-09-17T17:36:26;3.37;;;1.17;;
7971;SDS011;4031;49.758;6.120;2022-09-17T17:38:58;1.47;;;0.80;;
7971;SDS011;4031;49.758;6.120;2022-09-17T17:41:25;2.47;;;0.90;;
7971;SDS011;4031;49.758;6.120;2022-09-17T17:43:52;1.23;;;1.13;;
7971;SDS011;4031;49.758;6.120;2022-09-17T17:46:19;1.83;;;0.90;;
7971;SDS011;4031;49.758;6.120;2022-09-17T17:48:44;4.37;;;1.00;;
7971;SDS011;4031;49.758;6.120;2022-09-17T17:51:10;1.60;;;0.77;;
7971;SDS011;4031;49.758;6.120;2022-09-17T17:53:37;1.27;;;0.80;;
7971;SDS011;4031;49.758;6.120;2022-09-17T17:56:07;3.00;;;0.73;;
7971;SDS011;4031;49.758;6.120;2022-09-17T17:58:33;2.50;;;1.00;;
7971;SDS011;4031;49.758;6.120;2022-09-17T18:01:17;1.30;;;0.87;;
7971;SDS011;4031;49.758;6.120;2022-09-17T18:03:46;1.30;;;0.83;;
7971;SDS011;4031;49.758;6.120;2022-09-17T18:06:12;1.80;;;1.00;;
7971;SDS011;4031;49.758;6.120;2022-09-17T18:08:39;3.53;;;1.13;;
7971;SDS011;4031;49.758;6.120;2022-09-17T18:11:07;5.93;;;0.83;;
7971;SDS011;4031;49.758;6.120;2022-09-17T18:13:35;4.30;;;1.37;;
7971;SDS011;4031;49.758;6.120;2022-09-17T18:16:02;1.87;;;0.70;;
7971;SDS011;4031;49.758;6.120;2022-09-17T18:18:31;3.23;;;0.90;;
7971;SDS011;4031;49.758;6.120;2022-09-17T18:21:06;2.93;;;0.90;;
7971;SDS011;4031;49.758;6.120;2022-09-17T18:23:36;2.30;;;1.03;;
7971;SDS011;4031;49.758;6.120;2022-09-17T18:26:04;3.60;;;1.27;;
7971;SDS011;4031;49.758;6.120;2022-09-17T18:28:33;3.37;;;0.73;;
7971;SDS011;4031;49.758;6.120;2022-09-17T18:31:07;2.23;;;1.20;;
7971;SDS011;4031;49.758;6.120;2022-09-17T18:33:34;1.70;;;1.00;;
7971;SDS011;4031;49.758;6.120;2022-09-17T18:36:01;2.10;;;0.80;;
7971;SDS011;4031;49.758;6.120;2022-09-17T18:38:29;1.27;;;0.90;;
7971;SDS011;4031;49.758;6.120;2022-09-17T18:41:03;6.53;;;1.23;;
7971;SDS011;4031;49.758;6.120;2022-09-17T18:43:33;1.30;;;0.90;;
7971;SDS011;4031;49.758;6.120;2022-09-17T18:45:59;2.50;;;1.23;;
7971;SDS011;4031;49.758;6.120;2022-09-17T18:48:25;2.53;;;1.10;;
7971;SDS011;4031;49.758;6.120;2022-09-17T18:50:55;5.40;;;1.20;;
7971;SDS011;4031;49.758;6.120;2022-09-17T18:53:28;5.00;;;1.37;;
7971;SDS011;4031;49.758;6.120;2022-09-17T18:55:56;3.13;;;1.50;;
7971;SDS011;4031;49.758;6.120;2022-09-17T18:58:28;4.40;;;1.80;;
7971;SDS011;4031;49.758;6.120;2022-09-17T19:00:53;4.13;;;1.23;;
7971;SDS011;4031;49.758;6.120;2022-09-17T19:03:19;4.30;;;1.60;;
7971;SDS011;4031;49.758;6.120;2022-09-17T19:05:45;2.40;;;1.40;;
7971;SDS011;4031;49.758;6.120;2022-09-17T19:08:11;3.67;;;1.17;;
7971;SDS011;4031;49.758;6.120;2022-09-17T19:10:37;4.30;;;1.40;;
7971;SDS011;4031;49.758;6.120;2022-09-17T19:13:02;3.73;;;1.10;;
7971;SDS011;4031;49.758;6.120;2022-09-17T19:15:29;2.30;;;0.90;;
7971;SDS011;4031;49.758;6.120;2022-09-17T19:17:55;1.60;;;1.50;;